sensor_id;sensor_type;location;lat;lon;timestamp;pressure;altitude;pressure_sealevel;temperature;humidity
76868;BME280;66168;45.478;11.060;2023-01-01T00:00:13;102362.77;;;11.51;79.67
76868;BME280;66168;45.478;11.060;2023-01-01T00:02:40;102361.28;;;11.48;79.83
76868;BME280;66168;45.478;11.060;2023-01-01T00:05:07;102360.46;;;11.48;80.04
76868;BME280;66168;45.478;11.060;2023-01-01T00:07:34;102356.23;;;11.45;80.02
76868;BME280;66168;45.478;11.060;2023-01-01T00:10:01;102356.17;;;11.44;79.99
76868;BME280;66168;45.478;11.060;2023-01-01T00:13:05;102355.52;;;11.42;79.98
76868;BME280;66168;45.478;11.060;2023-01-01T00:15:32;102355.45;;;11.39;79.94
76868;BME280;66168;45.478;11.060;2023-01-01T00:17:59;102358.36;;;11.38;79.89
76868;BME280;66168;45.478;11.060;2023-01-01T00:20:26;102356.08;;;11.37;79.92
76868;BME280;66168;45.478;11.060;2023-01-01T00:23:00;102351.13;;;11.37;80.04
76868;BME280;66168;45.478;11.060;2023-01-01T00:25:27;102346.15;;;11.37;80.07
76868;BME280;66168;45.478;11.060;2023-01-01T00:27:54;102345.63;;;11.37;80.09
76868;BME280;66168;45.478;11.060;2023-01-01T00:30:21;102347.34;;;11.36;80.01
76868;BME280;66168;45.478;11.060;2023-01-01T00:32:50;102346.96;;;11.34;80.08
76868;BME280;66168;45.478;11.060;2023-01-01T00:35:25;102344.70;;;11.36;80.03
76868;BME280;66168;45.478;11.060;2023-01-01T00:37:52;102345.27;;;11.37;80.17
76868;BME280;66168;45.478;11.060;2023-01-01T00:40:20;102341.42;;;11.38;80.16
76868;BME280;66168;45.478;11.060;2023-01-01T00:42:47;102347.34;;;11.40;80.13
76868;BME280;66168;45.478;11.060;2023-01-01T00:45:17;102343.77;;;11.34;80.12
76868;BME280;66168;45.478;11.060;2023-01-01T00:47:49;102346.42;;;11.28;80.19
76868;BME280;66168;45.478;11.060;2023-01-01T00:50:18;102345.58;;;11.26;80.16
76868;BME280;66168;45.478;11.060;2023-01-01T00:52:44;102343.66;;;11.26;80.18
76868;BME280;66168;45.478;11.060;2023-01-01T00:55:12;102348.09;;;11.26;80.19
76868;BME280;66168;45.478;11.060;2023-01-01T00:57:39;102348.04;;;11.26;80.30
76868;BME280;66168;45.478;11.060;2023-01-01T01:00:06;102346.27;;;11.24;80.35
76868;BME280;66168;45.478;11.060;2023-01-01T01:02:34;102350.91;;;11.24;80.40
76868;BME280;66168;45.478;11.060;2023-01-01T01:05:01;102350.11;;;11.23;80.40
76868;BME280;66168;45.478;11.060;2023-01-01T01:07:33;102348.05;;;11.23;80.36
76868;BME280;66168;45.478;11.060;2023-01-01T01:10:01;102356.30;;;11.24;80.45
76868;BME280;66168;45.478;11.060;2023-01-01T01:12:27;102356.36;;;11.25;80.53
76868;BME280;66168;45.478;11.060;2023-01-01T01:14:54;102352.01;;;11.28;80.60
76868;BME280;66168;45.478;11.060;2023-01-01T01:17:21;102353.59;;;11.30;80.57
76868;BME280;66168;45.478;11.060;2023-01-01T01:19:47;102356.30;;;11.31;80.47
76868;BME280;66168;45.478;11.060;2023-01-01T01:22:14;102357.89;;;11.33;80.45
76868;BME280;66168;45.478;11.060;2023-01-01T01:24:41;102357.66;;;11.36;80.44
76868;BME280;66168;45.478;11.060;2023-01-01T01:27:07;102358.42;;;11.39;80.28
76868;BME280;66168;45.478;11.060;2023-01-01T01:29:34;102357.32;;;11.41;80.29
76868;BME280;66168;45.478;11.060;2023-01-01T01:32:01;102354.05;;;11.42;80.34
76868;BME280;66168;45.478;11.060;2023-01-01T01:34:28;102346.71;;;11.41;80.35
76868;BME280;66168;45.478;11.060;2023-01-01T01:36:55;102346.33;;;11.39;80.38
76868;BME280;66168;45.478;11.060;2023-01-01T01:39:22;102345.57;;;11.38;80.40
76868;BME280;66168;45.478;11.060;2023-01-01T01:41:48;102343.45;;;11.36;80.35
76868;BME280;66168;45.478;11.060;2023-01-01T01:49:49;102340.41;;;11.38;80.42
76868;BME280;66168;45.478;11.060;2023-01-01T01:52:19;102336.31;;;11.38;80.52
76868;BME280;66168;45.478;11.060;2023-01-01T01:54:46;102335.52;;;11.39;80.46
76868;BME280;66168;45.478;11.060;2023-01-01T01:57:13;102334.95;;;11.39;80.43
76868;BME280;66168;45.478;11.060;2023-01-01T01:59:45;102335.62;;;11.38;80.41
76868;BME280;66168;45.478;11.060;2023-01-01T02:02:19;102334.72;;;11.38;80.35
76868;BME280;66168;45.478;11.060;2023-01-01T02:04:49;102336.94;;;11.39;80.38
76868;BME280;66168;45.478;11.060;2023-01-01T02:07:17;102334.02;;;11.42;80.50
76868;BME280;66168;45.478;11.060;2023-01-01T02:09:45;102329.39;;;11.44;80.48
76868;BME280;66168;45.478;11.060;2023-01-01T02:12:11;102330.04;;;11.44;80.38
76868;BME280;66168;45.478;11.060;2023-01-01T02:14:38;102320.77;;;11.45;80.31
76868;BME280;66168;45.478;11.060;2023-01-01T02:17:15;102321.34;;;11.44;80.24
76868;BME280;66168;45.478;11.060;2023-01-01T02:27:56;102299.95;;;11.43;80.35
76868;BME280;66168;45.478;11.060;2023-01-01T02:30:28;102296.92;;;11.41;80.42
76868;BME280;66168;45.478;11.060;2023-01-01T02:33:00;102303.27;;;11.38;80.30
76868;BME280;66168;45.478;11.060;2023-01-01T02:35:32;102303.79;;;11.37;80.26
76868;BME280;66168;45.478;11.060;2023-01-01T02:40:30;102306.31;;;11.34;80.31
76868;BME280;66168;45.478;11.060;2023-01-01T02:43:00;102305.70;;;11.31;80.44
76868;BME280;66168;45.478;11.060;2023-01-01T02:45:27;102306.63;;;11.25;80.50
76868;BME280;66168;45.478;11.060;2023-01-01T02:47:54;102305.55;;;11.19;80.48
76868;BME280;66168;45.478;11.060;2023-01-01T02:50:23;102304.59;;;11.10;80.44
76868;BME280;66168;45.478;11.060;2023-01-01T02:55:59;102307.18;;;10.97;80.65
76868;BME280;66168;45.478;11.060;2023-01-01T02:58:38;102308.39;;;10.94;80.87
76868;BME280;66168;45.478;11.060;2023-01-01T03:01:49;102309.84;;;10.95;81.04
76868;BME280;66168;45.478;11.060;2023-01-01T03:09:40;102313.19;;;11.03;80.95
76868;BME280;66168;45.478;11.060;2023-01-01T03:12:32;102313.02;;;11.05;80.94
76868;BME280;66168;45.478;11.060;2023-01-01T03:15:57;102313.23;;;11.07;80.96
76868;BME280;66168;45.478;11.060;2023-01-01T03:18:41;102308.98;;;11.11;80.92
76868;BME280;66168;45.478;11.060;2023-01-01T03:21:06;102306.70;;;11.10;81.07
76868;BME280;66168;45.478;11.060;2023-01-01T03:23:37;102303.49;;;11.10;81.00
76868;BME280;66168;45.478;11.060;2023-01-01T03:26:12;102299.62;;;11.10;80.95
76868;BME280;66168;45.478;11.060;2023-01-01T03:28:47;102297.70;;;11.12;80.81
76868;BME280;66168;45.478;11.060;2023-01-01T03:31:18;102298.32;;;11.15;80.81
76868;BME280;66168;45.478;11.060;2023-01-01T03:33:49;102296.58;;;11.19;80.81
76868;BME280;66168;45.478;11.060;2023-01-01T03:36:21;102298.04;;;11.22;80.87
76868;BME280;66168;45.478;11.060;2023-01-01T03:38:51;102298.28;;;11.23;80.78
76868;BME280;66168;45.478;11.060;2023-01-01T03:41:26;102294.38;;;11.25;80.69
76868;BME280;66168;45.478;11.060;2023-01-01T03:46:45;102289.86;;;11.26;80.53
76868;BME280;66168;45.478;11.060;2023-01-01T03:49:13;102291.96;;;11.26;80.41
76868;BME280;66168;45.478;11.060;2023-01-01T03:51:53;102285.38;;;11.26;80.47
76868;BME280;66168;45.478;11.060;2023-01-01T03:57:08;102285.55;;;11.25;80.55
76868;BME280;66168;45.478;11.060;2023-01-01T03:59:42;102283.07;;;11.24;80.56
76868;BME280;66168;45.478;11.060;2023-01-01T04:02:14;102283.80;;;11.20;80.65
76868;BME280;66168;45.478;11.060;2023-01-01T04:04:43;102284.75;;;11.18;80.57
76868;BME280;66168;45.478;11.060;2023-01-01T04:07:10;102281.25;;;11.19;80.55
76868;BME280;66168;45.478;11.060;2023-01-01T04:09:46;102277.25;;;11.20;80.56
76868;BME280;66168;45.478;11.060;2023-01-01T04:12:15;102275.00;;;11.20;80.73
76868;BME280;66168;45.478;11.060;2023-01-01T04:14:43;102276.40;;;11.18;80.79
76868;BME280;66168;45.478;11.060;2023-01-01T04:17:11;102275.76;;;11.21;80.76
76868;BME280;66168;45.478;11.060;2023-01-01T04:19:37;102274.86;;;11.23;80.66
76868;BME280;66168;45.478;11.060;2023-01-01T04:22:04;102277.18;;;11.25;80.64
76868;BME280;66168;45.478;11.060;2023-01-01T04:24:31;102279.60;;;11.27;80.64
76868;BME280;66168;45.478;11.060;2023-01-01T04:26:58;102285.24;;;11.30;80.59
76868;BME280;66168;45.478;11.060;2023-01-01T04:29:25;102287.70;;;11.30;80.67
76868;BME280;66168;45.478;11.060;2023-01-01T04:31:52;102284.38;;;11.30;80.70
76868;BME280;66168;45.478;11.060;2023-01-01T04:34:19;102287.57;;;11.30;80.62
76868;BME280;66168;45.478;11.060;2023-01-01T04:36:45;102287.37;;;11.30;80.64
76868;BME280;66168;45.478;11.060;2023-01-01T04:39:12;102283.23;;;11.30;80.54
76868;BME280;66168;45.478;11.060;2023-01-01T04:41:39;102285.05;;;11.32;80.49
76868;BME280;66168;45.478;11.060;2023-01-01T04:44:05;102284.09;;;11.32;80.54
76868;BME280;66168;45.478;11.060;2023-01-01T04:46:32;102282.19;;;11.32;80.61
76868;BME280;66168;45.478;11.060;2023-01-01T04:48:59;102284.27;;;11.33;80.73
76868;BME280;66168;45.478;11.060;2023-01-01T04:51:25;102280.66;;;11.33;80.58
76868;BME280;66168;45.478;11.060;2023-01-01T04:53:52;102284.43;;;11.33;80.54
76868;BME280;66168;45.478;11.060;2023-01-01T04:56:20;102282.35;;;11.32;80.50
76868;BME280;66168;45.478;11.060;2023-01-01T04:58:48;102285.10;;;11.33;80.47
76868;BME280;66168;45.478;11.060;2023-01-01T05:01:26;102287.13;;;11.32;80.57
76868;BME280;66168;45.478;11.060;2023-01-01T05:03:53;102285.06;;;11.33;80.66
76868;BME280;66168;45.478;11.060;2023-01-01T05:06:21;102285.09;;;11.33;80.72
76868;BME280;66168;45.478;11.060;2023-01-01T05:08:49;102285.23;;;11.34;80.63
76868;BME280;66168;45.478;11.060;2023-01-01T05:11:22;102284.42;;;11.35;80.62
76868;BME280;66168;45.478;11.060;2023-01-01T05:13:51;102285.80;;;11.33;80.52
76868;BME280;66168;45.478;11.060;2023-01-01T05:16:21;102290.61;;;11.35;80.47
76868;BME280;66168;45.478;11.060;2023-01-01T05:18:49;102290.94;;;11.35;80.57
76868;BME280;66168;45.478;11.060;2023-01-01T05:21:25;102293.98;;;11.35;80.61
76868;BME280;66168;45.478;11.060;2023-01-01T05:23:53;102294.15;;;11.33;80.60
76868;BME280;66168;45.478;11.060;2023-01-01T05:26:23;102292.09;;;11.33;80.63
76868;BME280;66168;45.478;11.060;2023-01-01T05:28:50;102294.80;;;11.32;80.59
76868;BME280;66168;45.478;11.060;2023-01-01T05:31:19;102292.03;;;11.31;80.50
76868;BME280;66168;45.478;11.060;2023-01-01T05:33:47;102291.51;;;11.31;80.52
76868;BME280;66168;45.478;11.060;2023-01-01T05:36:16;102287.30;;;11.30;80.52
76868;BME280;66168;45.478;11.060;2023-01-01T05:38:43;102290.19;;;11.30;80.57
76868;BME280;66168;45.478;11.060;2023-01-01T05:41:12;102288.61;;;11.30;80.65
76868;BME280;66168;45.478;11.060;2023-01-01T05:43:39;102291.83;;;11.32;80.66
76868;BME280;66168;45.478;11.060;2023-01-01T05:46:09;102293.52;;;11.32;80.62
76868;BME280;66168;45.478;11.060;2023-01-01T05:48:37;102287.48;;;11.32;80.55
76868;BME280;66168;45.478;11.060;2023-01-01T05:51:06;102281.78;;;11.34;80.48
76868;BME280;66168;45.478;11.060;2023-01-01T05:53:33;102286.30;;;11.35;80.53
76868;BME280;66168;45.478;11.060;2023-01-01T05:56:00;102284.45;;;11.34;80.59
76868;BME280;66168;45.478;11.060;2023-01-01T05:58:28;102288.23;;;11.32;80.56
76868;BME280;66168;45.478;11.060;2023-01-01T06:01:26;102286.95;;;11.32;80.61
76868;BME280;66168;45.478;11.060;2023-01-01T06:03:53;102285.02;;;11.32;80.60
76868;BME280;66168;45.478;11.060;2023-01-01T06:06:22;102285.82;;;11.31;80.53
76868;BME280;66168;45.478;11.060;2023-01-01T06:08:51;102281.23;;;11.33;80.50
76868;BME280;66168;45.478;11.060;2023-01-01T06:11:19;102283.95;;;11.34;80.60
76868;BME280;66168;45.478;11.060;2023-01-01T06:13:46;102283.76;;;11.36;80.63
76868;BME280;66168;45.478;11.060;2023-01-01T06:16:13;102283.66;;;11.37;80.62
76868;BME280;66168;45.478;11.060;2023-01-01T06:18:40;102279.40;;;11.35;80.65
76868;BME280;66168;45.478;11.060;2023-01-01T06:21:27;102280.89;;;11.35;80.52
76868;BME280;66168;45.478;11.060;2023-01-01T06:23:55;102283.02;;;11.32;80.61
76868;BME280;66168;45.478;11.060;2023-01-01T06:26:25;102285.58;;;11.32;80.52
76868;BME280;66168;45.478;11.060;2023-01-01T06:28:52;102284.53;;;11.32;80.57
76868;BME280;66168;45.478;11.060;2023-01-01T06:31:20;102286.92;;;11.33;80.70
76868;BME280;66168;45.478;11.060;2023-01-01T06:33:48;102287.88;;;11.32;80.62
76868;BME280;66168;45.478;11.060;2023-01-01T06:36:18;102289.73;;;11.27;80.54
76868;BME280;66168;45.478;11.060;2023-01-01T06:38:48;102290.59;;;11.24;80.58
76868;BME280;66168;45.478;11.060;2023-01-01T06:41:17;102289.80;;;11.21;80.59
76868;BME280;66168;45.478;11.060;2023-01-01T06:43:45;102291.02;;;11.21;80.56
76868;BME280;66168;45.478;11.060;2023-01-01T06:46:21;102290.75;;;11.16;80.60
76868;BME280;66168;45.478;11.060;2023-01-01T06:48:51;102294.52;;;11.12;80.77
76868;BME280;66168;45.478;11.060;2023-01-01T06:51:24;102294.16;;;11.08;80.80
76868;BME280;66168;45.478;11.060;2023-01-01T06:53:52;102291.06;;;11.03;80.84
76868;BME280;66168;45.478;11.060;2023-01-01T06:56:19;102289.79;;;11.01;80.97
76868;BME280;66168;45.478;11.060;2023-01-01T06:58:46;102295.80;;;10.99;80.91
76868;BME280;66168;45.478;11.060;2023-01-01T07:01:20;102302.75;;;10.97;80.65
76868;BME280;66168;45.478;11.060;2023-01-01T07:03:53;102309.35;;;10.93;80.84
76868;BME280;66168;45.478;11.060;2023-01-01T07:06:21;102309.75;;;10.93;80.96
76868;BME280;66168;45.478;11.060;2023-01-01T07:08:49;102308.98;;;10.93;81.15
76868;BME280;66168;45.478;11.060;2023-01-01T07:11:16;102310.22;;;10.95;81.12
76868;BME280;66168;45.478;11.060;2023-01-01T07:13:43;102305.61;;;10.97;81.08
76868;BME280;66168;45.478;11.060;2023-01-01T07:16:10;102308.98;;;10.97;80.98
76868;BME280;66168;45.478;11.060;2023-01-01T07:18:39;102302.75;;;10.99;80.91
76868;BME280;66168;45.478;11.060;2023-01-01T07:23:55;102306.17;;;11.01;81.09
76868;BME280;66168;45.478;11.060;2023-01-01T07:26:24;102309.18;;;10.97;81.07
76868;BME280;66168;45.478;11.060;2023-01-01T07:28:52;102309.75;;;10.93;81.02
76868;BME280;66168;45.478;11.060;2023-01-01T07:31:18;102308.71;;;10.90;81.01
76868;BME280;66168;45.478;11.060;2023-01-01T07:33:45;102311.89;;;10.89;80.95
76868;BME280;66168;45.478;11.060;2023-01-01T07:36:12;102312.20;;;10.87;80.98
76868;BME280;66168;45.478;11.060;2023-01-01T07:38:39;102307.95;;;10.87;81.21
76868;BME280;66168;45.478;11.060;2023-01-01T07:41:06;102309.21;;;10.89;81.21
76868;BME280;66168;45.478;11.060;2023-01-01T07:43:33;102309.23;;;10.91;81.24
76868;BME280;66168;45.478;11.060;2023-01-01T07:45:59;102313.52;;;10.94;81.15
76868;BME280;66168;45.478;11.060;2023-01-01T07:48:27;102314.70;;;10.97;81.20
76868;BME280;66168;45.478;11.060;2023-01-01T07:50:53;102313.33;;;11.00;81.14
76868;BME280;66168;45.478;11.060;2023-01-01T07:53:20;102311.98;;;11.07;81.07
76868;BME280;66168;45.478;11.060;2023-01-01T07:55:47;102308.05;;;11.13;81.06
76868;BME280;66168;45.478;11.060;2023-01-01T07:58:13;102310.97;;;11.18;81.12
76868;BME280;66168;45.478;11.060;2023-01-01T08:00:44;102314.10;;;11.23;81.09
76868;BME280;66168;45.478;11.060;2023-01-01T08:03:11;102320.22;;;11.26;80.91
76868;BME280;66168;45.478;11.060;2023-01-01T08:05:38;102319.27;;;11.29;80.88
76868;BME280;66168;45.478;11.060;2023-01-01T08:08:05;102315.64;;;11.31;80.82
76868;BME280;66168;45.478;11.060;2023-01-01T08:10:32;102316.53;;;11.35;80.72
76868;BME280;66168;45.478;11.060;2023-01-01T08:13:03;102317.41;;;11.39;80.72
76868;BME280;66168;45.478;11.060;2023-01-01T08:15:31;102321.23;;;11.42;80.72
76868;BME280;66168;45.478;11.060;2023-01-01T08:17:59;102325.52;;;11.45;80.78
76868;BME280;66168;45.478;11.060;2023-01-01T08:20:28;102330.96;;;11.48;80.60
76868;BME280;66168;45.478;11.060;2023-01-01T08:22:55;102328.81;;;11.44;80.50
76868;BME280;66168;45.478;11.060;2023-01-01T08:25:30;102329.63;;;11.43;80.53
76868;BME280;66168;45.478;11.060;2023-01-01T08:27:56;102330.95;;;11.46;80.48
76868;BME280;66168;45.478;11.060;2023-01-01T08:30:23;102332.51;;;11.48;80.55
76868;BME280;66168;45.478;11.060;2023-01-01T08:32:50;102333.32;;;11.49;80.68
76868;BME280;66168;45.478;11.060;2023-01-01T08:35:17;102331.10;;;11.52;80.61
76868;BME280;66168;45.478;11.060;2023-01-01T08:37:44;102327.52;;;11.54;80.61
76868;BME280;66168;45.478;11.060;2023-01-01T08:40:12;102330.31;;;11.56;80.45
76868;BME280;66168;45.478;11.060;2023-01-01T08:42:40;102328.14;;;11.55;80.41
76868;BME280;66168;45.478;11.060;2023-01-01T08:45:07;102326.76;;;11.59;80.49
76868;BME280;66168;45.478;11.060;2023-01-01T08:47:34;102325.80;;;11.61;80.52
76868;BME280;66168;45.478;11.060;2023-01-01T08:50:01;102326.66;;;11.65;80.66
76868;BME280;66168;45.478;11.060;2023-01-01T08:52:28;102326.06;;;11.70;80.53
76868;BME280;66168;45.478;11.060;2023-01-01T08:54:54;102331.17;;;11.73;80.34
76868;BME280;66168;45.478;11.060;2023-01-01T08:57:21;102330.22;;;11.75;80.34
76868;BME280;66168;45.478;11.060;2023-01-01T08:59:48;102329.23;;;11.76;80.24
76868;BME280;66168;45.478;11.060;2023-01-01T09:02:15;102332.44;;;11.74;80.07
76868;BME280;66168;45.478;11.060;2023-01-01T09:04:42;102329.31;;;11.76;80.20
76868;BME280;66168;45.478;11.060;2023-01-01T09:07:08;102331.79;;;11.74;80.17
76868;BME280;66168;45.478;11.060;2023-01-01T09:09:35;102330.21;;;11.70;80.25
76868;BME280;66168;45.478;11.060;2023-01-01T09:12:02;102330.01;;;11.66;80.27
76868;BME280;66168;45.478;11.060;2023-01-01T09:14:32;102335.25;;;11.67;80.21
76868;BME280;66168;45.478;11.060;2023-01-01T09:17:00;102335.50;;;11.66;80.03
76868;BME280;66168;45.478;11.060;2023-01-01T09:19:27;102337.48;;;11.61;80.00
76868;BME280;66168;45.478;11.060;2023-01-01T09:21:53;102341.60;;;11.58;80.11
76868;BME280;66168;45.478;11.060;2023-01-01T09:24:20;102341.45;;;11.53;80.22
76868;BME280;66168;45.478;11.060;2023-01-01T09:26:47;102345.60;;;11.47;80.29
76868;BME280;66168;45.478;11.060;2023-01-01T09:29:14;102344.23;;;11.43;80.21
76868;BME280;66168;45.478;11.060;2023-01-01T09:31:47;102345.09;;;11.37;80.20
76868;BME280;66168;45.478;11.060;2023-01-01T09:34:14;102345.52;;;11.34;80.23
76868;BME280;66168;45.478;11.060;2023-01-01T09:36:41;102344.79;;;11.37;80.26
76868;BME280;66168;45.478;11.060;2023-01-01T09:39:11;102342.74;;;11.41;80.28
76868;BME280;66168;45.478;11.060;2023-01-01T09:41:56;102340.91;;;11.46;80.17
76868;BME280;66168;45.478;11.060;2023-01-01T09:44:38;102338.56;;;11.50;80.10
76868;BME280;66168;45.478;11.060;2023-01-01T09:49:57;102343.35;;;11.56;79.46
76868;BME280;66168;45.478;11.060;2023-01-01T09:52:36;102339.04;;;11.56;78.91
76868;BME280;66168;45.478;11.060;2023-01-01T09:55:18;102340.53;;;11.57;78.93
76868;BME280;66168;45.478;11.060;2023-01-01T09:57:47;102335.28;;;11.58;79.01
76868;BME280;66168;45.478;11.060;2023-01-01T10:00:16;102332.54;;;11.63;78.99
76868;BME280;66168;45.478;11.060;2023-01-01T10:02:51;102334.39;;;11.66;78.77
76868;BME280;66168;45.478;11.060;2023-01-01T10:08:04;102328.51;;;11.77;78.40
76868;BME280;66168;45.478;11.060;2023-01-01T10:10:46;102323.80;;;11.81;78.28
76868;BME280;66168;45.478;11.060;2023-01-01T10:13:20;102318.70;;;11.88;78.29
76868;BME280;66168;45.478;11.060;2023-01-01T10:18:39;102316.29;;;12.00;77.98
76868;BME280;66168;45.478;11.060;2023-01-01T10:21:32;102315.84;;;12.05;78.06
76868;BME280;66168;45.478;11.060;2023-01-01T10:24:21;102313.34;;;12.09;77.60
76868;BME280;66168;45.478;11.060;2023-01-01T10:26:52;102307.60;;;12.10;77.35
76868;BME280;66168;45.478;11.060;2023-01-01T10:29:28;102304.79;;;12.09;77.21
76868;BME280;66168;45.478;11.060;2023-01-01T10:32:26;102297.33;;;12.09;76.95
76868;BME280;66168;45.478;11.060;2023-01-01T10:34:53;102296.16;;;12.05;76.34
76868;BME280;66168;45.478;11.060;2023-01-01T10:37:21;102297.42;;;12.02;76.61
76868;BME280;66168;45.478;11.060;2023-01-01T10:39:48;102296.52;;;12.06;76.82
76868;BME280;66168;45.478;11.060;2023-01-01T10:42:15;102302.06;;;12.12;76.81
76868;BME280;66168;45.478;11.060;2023-01-01T10:44:42;102295.66;;;12.17;76.78
76868;BME280;66168;45.478;11.060;2023-01-01T10:50:15;102293.61;;;12.31;76.52
76868;BME280;66168;45.478;11.060;2023-01-01T10:52:55;102293.94;;;12.35;75.74
76868;BME280;66168;45.478;11.060;2023-01-01T10:55:24;102284.02;;;12.36;75.39
76868;BME280;66168;45.478;11.060;2023-01-01T10:57:52;102282.75;;;12.37;75.70
76868;BME280;66168;45.478;11.060;2023-01-01T11:00:25;102280.59;;;12.39;75.57
76868;BME280;66168;45.478;11.060;2023-01-01T11:05:38;102273.77;;;12.30;75.13
76868;BME280;66168;45.478;11.060;2023-01-01T11:08:16;102269.29;;;12.32;75.13
76868;BME280;66168;45.478;11.060;2023-01-01T11:10:49;102262.40;;;12.36;74.59
76868;BME280;66168;45.478;11.060;2023-01-01T11:13:18;102263.06;;;12.38;74.74
76868;BME280;66168;45.478;11.060;2023-01-01T11:15:45;102259.67;;;12.42;74.73
76868;BME280;66168;45.478;11.060;2023-01-01T11:18:21;102254.28;;;12.48;74.43
76868;BME280;66168;45.478;11.060;2023-01-01T11:20:56;102253.69;;;12.52;74.47
76868;BME280;66168;45.478;11.060;2023-01-01T11:23:38;102253.92;;;12.55;74.57
76868;BME280;66168;45.478;11.060;2023-01-01T11:28:38;102249.12;;;12.60;74.02
76868;BME280;66168;45.478;11.060;2023-01-01T11:31:17;102244.19;;;12.61;73.85
76868;BME280;66168;45.478;11.060;2023-01-01T11:36:35;102242.33;;;12.64;73.48
76868;BME280;66168;45.478;11.060;2023-01-01T11:39:23;102238.17;;;12.66;73.80
76868;BME280;66168;45.478;11.060;2023-01-01T11:41:54;102237.08;;;12.67;73.80
76868;BME280;66168;45.478;11.060;2023-01-01T11:44:36;102235.88;;;12.61;73.93
76868;BME280;66168;45.478;11.060;2023-01-01T11:47:05;102232.79;;;12.58;74.03
76868;BME280;66168;45.478;11.060;2023-01-01T11:49:33;102234.20;;;12.60;73.75
76868;BME280;66168;45.478;11.060;2023-01-01T11:52:28;102231.45;;;12.61;73.87
76868;BME280;66168;45.478;11.060;2023-01-01T11:55:02;102224.59;;;12.63;73.85
76868;BME280;66168;45.478;11.060;2023-01-01T11:57:35;102227.77;;;12.65;73.79
76868;BME280;66168;45.478;11.060;2023-01-01T12:00:03;102219.14;;;12.65;73.74
76868;BME280;66168;45.478;11.060;2023-01-01T12:02:45;102218.02;;;12.65;73.60
76868;BME280;66168;45.478;11.060;2023-01-01T12:05:21;102220.63;;;12.64;73.45
76868;BME280;66168;45.478;11.060;2023-01-01T12:07:50;102221.48;;;12.63;73.91
76868;BME280;66168;45.478;11.060;2023-01-01T12:10:24;102217.81;;;12.64;73.98
76868;BME280;66168;45.478;11.060;2023-01-01T12:12:59;102213.56;;;12.65;73.95
76868;BME280;66168;45.478;11.060;2023-01-01T12:18:20;102214.02;;;12.63;73.77
76868;BME280;66168;45.478;11.060;2023-01-01T12:20:59;102211.20;;;12.59;74.20
76868;BME280;66168;45.478;11.060;2023-01-01T12:23:30;102209.46;;;12.58;74.65
76868;BME280;66168;45.478;11.060;2023-01-01T12:26:11;102208.48;;;12.61;75.03
76868;BME280;66168;45.478;11.060;2023-01-01T12:31:39;102212.14;;;12.62;75.99
76868;BME280;66168;45.478;11.060;2023-01-01T12:37:04;102212.56;;;12.64;76.15
76868;BME280;66168;45.478;11.060;2023-01-01T12:44:43;102199.35;;;12.65;76.43
76868;BME280;66168;45.478;11.060;2023-01-01T12:52:44;102186.77;;;12.74;76.65
76868;BME280;66168;45.478;11.060;2023-01-01T13:00:56;102183.10;;;12.60;76.94
76868;BME280;66168;45.478;11.060;2023-01-01T13:03:28;102188.16;;;12.60;77.08
76868;BME280;66168;45.478;11.060;2023-01-01T13:05:57;102194.16;;;12.53;77.25
76868;BME280;66168;45.478;11.060;2023-01-01T13:08:25;102194.75;;;12.45;77.47
76868;BME280;66168;45.478;11.060;2023-01-01T13:10:54;102191.13;;;12.41;77.78
76868;BME280;66168;45.478;11.060;2023-01-01T13:13:23;102188.75;;;12.38;77.79
76868;BME280;66168;45.478;11.060;2023-01-01T13:15:54;102188.92;;;12.34;77.81
76868;BME280;66168;45.478;11.060;2023-01-01T13:18:25;102189.78;;;12.31;78.28
76868;BME280;66168;45.478;11.060;2023-01-01T13:20:55;102188.30;;;12.24;78.29
76868;BME280;66168;45.478;11.060;2023-01-01T13:31:17;102185.06;;;12.25;78.59
76868;BME280;66168;45.478;11.060;2023-01-01T13:33:44;102185.49;;;12.24;78.73
76868;BME280;66168;45.478;11.060;2023-01-01T13:36:30;102185.92;;;12.21;78.77
76868;BME280;66168;45.478;11.060;2023-01-01T13:38:59;102189.98;;;12.18;78.87
76868;BME280;66168;45.478;11.060;2023-01-01T13:51:56;102182.70;;;12.32;79.15
76868;BME280;66168;45.478;11.060;2023-01-01T14:00:18;102193.30;;;12.24;79.04
76868;BME280;66168;45.478;11.060;2023-01-01T14:05:27;102193.82;;;12.19;79.27
76868;BME280;66168;45.478;11.060;2023-01-01T14:07:55;102196.56;;;12.18;79.47
76868;BME280;66168;45.478;11.060;2023-01-01T14:10:31;102195.15;;;12.16;79.52
76868;BME280;66168;45.478;11.060;2023-01-01T14:18:03;102202.95;;;12.10;79.45
76868;BME280;66168;45.478;11.060;2023-01-01T14:23:32;102203.00;;;12.16;79.65
76868;BME280;66168;45.478;11.060;2023-01-01T14:26:02;102203.70;;;12.18;79.76
76868;BME280;66168;45.478;11.060;2023-01-01T14:28:31;102206.61;;;12.17;79.67
76868;BME280;66168;45.478;11.060;2023-01-01T14:31:04;102208.54;;;12.13;79.73
76868;BME280;66168;45.478;11.060;2023-01-01T14:33:37;102203.67;;;12.09;79.79
76868;BME280;66168;45.478;11.060;2023-01-01T14:36:19;102207.08;;;12.07;79.62
76868;BME280;66168;45.478;11.060;2023-01-01T14:38:48;102208.31;;;12.03;79.83
76868;BME280;66168;45.478;11.060;2023-01-01T14:41:35;102213.92;;;12.02;79.97
76868;BME280;66168;45.478;11.060;2023-01-01T14:44:11;102218.26;;;12.05;80.09
76868;BME280;66168;45.478;11.060;2023-01-01T14:46:40;102217.04;;;12.08;80.21
76868;BME280;66168;45.478;11.060;2023-01-01T14:49:09;102214.21;;;12.14;80.09